sensor_id;sensor_type;location;lat;lon;timestamp;pressure;altitude;pressure_sealevel;temperature;humidity
20628;BME280;10473;42.734;24.258;2024-03-02T00:00:07;91676.28;;;6.76;70.23
20628;BME280;10473;42.734;24.258;2024-03-02T00:02:46;91676.28;;;6.69;70.47
20628;BME280;10473;42.734;24.258;2024-03-02T00:05:14;91681.06;;;6.79;70.56
20628;BME280;10473;42.734;24.258;2024-03-02T00:07:42;91686.94;;;6.60;70.98
20628;BME280;10473;42.734;24.258;2024-03-02T00:10:09;91673.31;;;6.72;71.00
20628;BME280;10473;42.734;24.258;2024-03-02T00:12:39;91668.56;;;6.69;71.13
20628;BME280;10473;42.734;24.258;2024-03-02T00:17:53;91673.97;;;6.88;70.41
20628;BME280;10473;42.734;24.258;2024-03-02T00:20:24;91673.19;;;7.01;70.68
20628;BME280;10473;42.734;24.258;2024-03-02T00:23:00;91675.56;;;7.09;69.33
20628;BME280;10473;42.734;24.258;2024-03-02T00:25:38;91671.78;;;7.05;69.17
20628;BME280;10473;42.734;24.258;2024-03-02T00:28:04;91670.00;;;6.92;70.29
20628;BME280;10473;42.734;24.258;2024-03-02T00:33:30;91664.13;;;7.31;68.99
20628;BME280;10473;42.734;24.258;2024-03-02T00:35:57;91675.56;;;7.15;69.35
20628;BME280;10473;42.734;24.258;2024-03-02T00:38:23;91656.75;;;7.02;70.04
20628;BME280;10473;42.734;24.258;2024-03-02T00:40:49;91668.84;;;7.21;69.30
20628;BME280;10473;42.734;24.258;2024-03-02T00:43:45;91673.22;;;7.20;68.82
20628;BME280;10473;42.734;24.258;2024-03-02T00:46:15;91668.06;;;7.14;67.53
20628;BME280;10473;42.734;24.258;2024-03-02T00:49:02;91674.38;;;7.05;69.69
20628;BME280;10473;42.734;24.258;2024-03-02T00:51:30;91669.03;;;6.99;70.06
20628;BME280;10473;42.734;24.258;2024-03-02T00:53:59;91672.59;;;6.98;71.25
20628;BME280;10473;42.734;24.258;2024-03-02T00:56:28;91666.63;;;6.85;71.14
20628;BME280;10473;42.734;24.258;2024-03-02T00:58:54;91673.75;;;6.28;75.27
20628;BME280;10473;42.734;24.258;2024-03-02T01:01:19;91668.75;;;6.13;75.91
20628;BME280;10473;42.734;24.258;2024-03-02T01:03:45;91663.31;;;5.94;77.06
20628;BME280;10473;42.734;24.258;2024-03-02T01:06:13;91660.59;;;5.74;78.30
20628;BME280;10473;42.734;24.258;2024-03-02T01:08:39;91669.56;;;5.92;77.96
20628;BME280;10473;42.734;24.258;2024-03-02T01:11:04;91661.63;;;5.52;79.51
20628;BME280;10473;42.734;24.258;2024-03-02T01:13:31;91664.75;;;5.47;80.51
20628;BME280;10473;42.734;24.258;2024-03-02T01:15:57;91661.84;;;5.29;81.55
20628;BME280;10473;42.734;24.258;2024-03-02T01:18:22;91648.31;;;5.13;82.31
20628;BME280;10473;42.734;24.258;2024-03-02T01:20:49;91649.72;;;5.16;82.64
20628;BME280;10473;42.734;24.258;2024-03-02T01:23:21;91658.94;;;4.89;84.38
20628;BME280;10473;42.734;24.258;2024-03-02T01:25:47;91642.28;;;4.57;86.17
20628;BME280;10473;42.734;24.258;2024-03-02T01:28:13;91641.72;;;4.61;86.29
20628;BME280;10473;42.734;24.258;2024-03-02T01:30:39;91638.75;;;4.58;86.06
20628;BME280;10473;42.734;24.258;2024-03-02T01:33:06;91628.25;;;4.74;85.64
20628;BME280;10473;42.734;24.258;2024-03-02T01:35:32;91604.84;;;4.77;83.35
20628;BME280;10473;42.734;24.258;2024-03-02T01:37:58;91620.84;;;5.07;83.08
20628;BME280;10473;42.734;24.258;2024-03-02T01:40:23;91609.19;;;5.05;82.21
20628;BME280;10473;42.734;24.258;2024-03-02T01:42:53;91608.22;;;5.06;82.05
20628;BME280;10473;42.734;24.258;2024-03-02T01:45:23;91610.50;;;5.22;81.97
20628;BME280;10473;42.734;24.258;2024-03-02T01:47:49;91605.44;;;5.29;81.22
20628;BME280;10473;42.734;24.258;2024-03-02T01:50:16;91613.56;;;5.32;81.17
20628;BME280;10473;42.734;24.258;2024-03-02T01:52:49;91619.75;;;5.17;82.50
20628;BME280;10473;42.734;24.258;2024-03-02T01:55:15;91613.41;;;5.41;80.47
20628;BME280;10473;42.734;24.258;2024-03-02T01:57:40;91610.03;;;5.33;81.61
20628;BME280;10473;42.734;24.258;2024-03-02T02:00:07;91609.31;;;5.53;80.11
20628;BME280;10473;42.734;24.258;2024-03-02T02:02:32;91605.84;;;5.61;78.32
20628;BME280;10473;42.734;24.258;2024-03-02T02:04:58;91615.38;;;5.73;76.33
20628;BME280;10473;42.734;24.258;2024-03-02T02:07:23;91601.44;;;5.89;73.16
20628;BME280;10473;42.734;24.258;2024-03-02T02:09:49;91589.88;;;6.07;72.85
20628;BME280;10473;42.734;24.258;2024-03-02T02:12:14;91601.44;;;6.37;70.56
20628;BME280;10473;42.734;24.258;2024-03-02T02:14:47;91612.03;;;6.76;68.46
20628;BME280;10473;42.734;24.258;2024-03-02T02:17:14;91612.00;;;6.69;70.32
20628;BME280;10473;42.734;24.258;2024-03-02T02:19:40;91617.16;;;6.69;71.00
20628;BME280;10473;42.734;24.258;2024-03-02T02:22:06;91611.59;;;6.59;69.25
20628;BME280;10473;42.734;24.258;2024-03-02T02:24:32;91612.97;;;6.55;71.87
20628;BME280;10473;42.734;24.258;2024-03-02T02:26:57;91618.50;;;6.52;70.97
20628;BME280;10473;42.734;24.258;2024-03-02T02:29:23;91610.97;;;6.50;71.92
20628;BME280;10473;42.734;24.258;2024-03-02T02:31:48;91615.34;;;6.63;70.13
20628;BME280;10473;42.734;24.258;2024-03-02T02:34:14;91615.78;;;6.67;70.52
20628;BME280;10473;42.734;24.258;2024-03-02T02:36:40;91619.13;;;6.67;69.15
20628;BME280;10473;42.734;24.258;2024-03-02T02:39:08;91614.22;;;6.79;67.85
20628;BME280;10473;42.734;24.258;2024-03-02T02:41:36;91605.50;;;6.73;70.57
20628;BME280;10473;42.734;24.258;2024-03-02T02:44:01;91610.66;;;6.80;70.76
20628;BME280;10473;42.734;24.258;2024-03-02T02:46:27;91601.91;;;6.61;71.14
20628;BME280;10473;42.734;24.258;2024-03-02T02:48:52;91600.16;;;6.68;70.88
20628;BME280;10473;42.734;24.258;2024-03-02T02:51:19;91605.28;;;6.62;71.63
20628;BME280;10473;42.734;24.258;2024-03-02T02:53:44;91604.28;;;6.56;71.88
20628;BME280;10473;42.734;24.258;2024-03-02T02:56:13;91597.13;;;6.45;73.04
20628;BME280;10473;42.734;24.258;2024-03-02T02:58:40;91610.63;;;6.60;72.75
20628;BME280;10473;42.734;24.258;2024-03-02T03:01:06;91612.31;;;6.40;70.89
20628;BME280;10473;42.734;24.258;2024-03-02T03:03:33;91597.94;;;6.52;70.61
20628;BME280;10473;42.734;24.258;2024-03-02T03:05:58;91598.81;;;6.86;67.92
20628;BME280;10473;42.734;24.258;2024-03-02T03:08:24;91591.06;;;6.72;68.13
20628;BME280;10473;42.734;24.258;2024-03-02T03:10:49;91596.00;;;6.87;68.35
20628;BME280;10473;42.734;24.258;2024-03-02T03:13:15;91595.22;;;6.93;67.52
20628;BME280;10473;42.734;24.258;2024-03-02T03:15:40;91589.31;;;6.99;65.56
20628;BME280;10473;42.734;24.258;2024-03-02T03:18:06;91596.66;;;7.03;65.75
20628;BME280;10473;42.734;24.258;2024-03-02T03:20:33;91591.69;;;7.21;63.56
20628;BME280;10473;42.734;24.258;2024-03-02T03:22:59;91615.44;;;7.36;62.64
20628;BME280;10473;42.734;24.258;2024-03-02T03:25:25;91600.00;;;7.36;63.65
20628;BME280;10473;42.734;24.258;2024-03-02T03:27:52;91607.31;;;7.46;64.44
20628;BME280;10473;42.734;24.258;2024-03-02T03:30:18;91600.38;;;7.47;63.22
20628;BME280;10473;42.734;24.258;2024-03-02T03:32:43;91602.94;;;7.60;59.99
20628;BME280;10473;42.734;24.258;2024-03-02T03:35:09;91602.34;;;7.51;62.24
20628;BME280;10473;42.734;24.258;2024-03-02T03:37:35;91603.75;;;7.47;62.99
20628;BME280;10473;42.734;24.258;2024-03-02T03:40:02;91581.78;;;7.31;64.25
20628;BME280;10473;42.734;24.258;2024-03-02T03:42:28;91594.63;;;7.45;62.04
20628;BME280;10473;42.734;24.258;2024-03-02T03:44:54;91582.75;;;7.57;60.84
20628;BME280;10473;42.734;24.258;2024-03-02T03:47:19;91579.34;;;7.63;59.84
20628;BME280;10473;42.734;24.258;2024-03-02T03:49:45;91583.31;;;7.72;60.32
20628;BME280;10473;42.734;24.258;2024-03-02T03:52:11;91573.78;;;7.79;58.82
20628;BME280;10473;42.734;24.258;2024-03-02T03:54:36;91571.97;;;7.87;58.44
20628;BME280;10473;42.734;24.258;2024-03-02T03:57:04;91575.75;;;7.77;59.04
20628;BME280;10473;42.734;24.258;2024-03-02T03:59:29;91567.81;;;7.86;58.67
20628;BME280;10473;42.734;24.258;2024-03-02T04:01:55;91571.34;;;7.98;58.04
20628;BME280;10473;42.734;24.258;2024-03-02T04:04:21;91569.78;;;7.90;57.48
20628;BME280;10473;42.734;24.258;2024-03-02T04:06:47;91567.38;;;7.95;57.01
20628;BME280;10473;42.734;24.258;2024-03-02T04:09:12;91570.41;;;7.86;57.65
20628;BME280;10473;42.734;24.258;2024-03-02T04:11:38;91565.22;;;7.92;57.75
20628;BME280;10473;42.734;24.258;2024-03-02T04:14:03;91566.03;;;7.86;56.85
20628;BME280;10473;42.734;24.258;2024-03-02T04:16:31;91573.72;;;7.93;57.28
20628;BME280;10473;42.734;24.258;2024-03-02T04:18:57;91589.63;;;7.70;61.92
20628;BME280;10473;42.734;24.258;2024-03-02T04:21:22;91594.47;;;7.39;64.10
20628;BME280;10473;42.734;24.258;2024-03-02T04:23:48;91596.22;;;7.59;63.29
20628;BME280;10473;42.734;24.258;2024-03-02T04:26:13;91588.50;;;7.46;63.22
20628;BME280;10473;42.734;24.258;2024-03-02T04:28:40;91597.00;;;7.26;64.34
20628;BME280;10473;42.734;24.258;2024-03-02T04:31:05;91598.19;;;7.44;63.13
20628;BME280;10473;42.734;24.258;2024-03-02T04:33:31;91575.84;;;7.31;66.54
20628;BME280;10473;42.734;24.258;2024-03-02T04:35:56;91595.63;;;7.24;66.74
20628;BME280;10473;42.734;24.258;2024-03-02T04:38:23;91582.59;;;7.25;66.51
20628;BME280;10473;42.734;24.258;2024-03-02T04:40:48;91582.59;;;7.12;65.73
20628;BME280;10473;42.734;24.258;2024-03-02T04:43:14;91584.38;;;7.18;64.44
20628;BME280;10473;42.734;24.258;2024-03-02T04:45:42;91591.09;;;7.06;65.99
20628;BME280;10473;42.734;24.258;2024-03-02T04:48:08;91588.91;;;7.23;63.29
20628;BME280;10473;42.734;24.258;2024-03-02T04:50:33;91584.38;;;7.18;64.17
20628;BME280;10473;42.734;24.258;2024-03-02T04:52:59;91603.53;;;7.15;64.68
20628;BME280;10473;42.734;24.258;2024-03-02T04:55:25;91598.41;;;7.29;64.22
20628;BME280;10473;42.734;24.258;2024-03-02T04:58:10;91597.41;;;7.23;64.90
20628;BME280;10473;42.734;24.258;2024-03-02T05:00:36;91612.25;;;7.28;64.90
20628;BME280;10473;42.734;24.258;2024-03-02T05:03:03;91615.03;;;7.39;63.78
20628;BME280;10473;42.734;24.258;2024-03-02T05:05:28;91606.34;;;7.27;65.22
20628;BME280;10473;42.734;24.258;2024-03-02T05:07:54;91602.56;;;7.30;63.10
20628;BME280;10473;42.734;24.258;2024-03-02T05:10:20;91612.84;;;7.36;62.49
20628;BME280;10473;42.734;24.258;2024-03-02T05:12:45;91626.50;;;7.44;63.30
20628;BME280;10473;42.734;24.258;2024-03-02T05:15:12;91627.50;;;7.43;63.37
20628;BME280;10473;42.734;24.258;2024-03-02T05:17:38;91634.44;;;7.35;63.05
20628;BME280;10473;42.734;24.258;2024-03-02T05:20:08;91621.34;;;7.30;63.67
20628;BME280;10473;42.734;24.258;2024-03-02T05:22:34;91634.81;;;7.32;64.50
20628;BME280;10473;42.734;24.258;2024-03-02T05:25:00;91627.50;;;7.16;65.40
20628;BME280;10473;42.734;24.258;2024-03-02T05:27:35;91638.19;;;7.26;64.61
20628;BME280;10473;42.734;24.258;2024-03-02T05:30:01;91638.78;;;7.28;64.51
20628;BME280;10473;42.734;24.258;2024-03-02T05:32:27;91646.31;;;7.16;65.25
20628;BME280;10473;42.734;24.258;2024-03-02T05:34:53;91636.59;;;7.18;64.24
20628;BME280;10473;42.734;24.258;2024-03-02T05:37:19;91642.72;;;7.11;64.52
20628;BME280;10473;42.734;24.258;2024-03-02T05:39:45;91641.94;;;7.04;66.72
20628;BME280;10473;42.734;24.258;2024-03-02T05:42:11;91647.06;;;7.04;66.87
20628;BME280;10473;42.734;24.258;2024-03-02T05:44:37;91651.22;;;7.05;66.77
20628;BME280;10473;42.734;24.258;2024-03-02T05:47:03;91637.94;;;6.81;68.07
20628;BME280;10473;42.734;24.258;2024-03-02T05:49:29;91636.75;;;6.84;67.90
20628;BME280;10473;42.734;24.258;2024-03-02T05:51:55;91647.28;;;7.22;68.17
20628;BME280;10473;42.734;24.258;2024-03-02T05:54:21;91652.22;;;7.30;67.79
20628;BME280;10473;42.734;24.258;2024-03-02T05:56:47;91653.44;;;7.21;67.55
20628;BME280;10473;42.734;24.258;2024-03-02T05:59:12;91655.81;;;7.23;67.61
20628;BME280;10473;42.734;24.258;2024-03-02T06:01:46;91660.53;;;7.06;67.48
20628;BME280;10473;42.734;24.258;2024-03-02T06:04:18;91661.13;;;7.01;69.23
20628;BME280;10473;42.734;24.258;2024-03-02T06:06:43;91659.34;;;7.22;69.50
20628;BME280;10473;42.734;24.258;2024-03-02T06:09:09;91656.16;;;6.99;69.47
20628;BME280;10473;42.734;24.258;2024-03-02T06:11:40;91666.66;;;7.05;69.41
20628;BME280;10473;42.734;24.258;2024-03-02T06:14:09;91667.63;;;6.90;71.09
20628;BME280;10473;42.734;24.258;2024-03-02T06:16:34;91665.66;;;6.92;71.05
20628;BME280;10473;42.734;24.258;2024-03-02T06:19:03;91658.13;;;6.97;70.77
20628;BME280;10473;42.734;24.258;2024-03-02T06:21:29;91662.66;;;6.82;71.61
20628;BME280;10473;42.734;24.258;2024-03-02T06:23:55;91669.19;;;6.91;70.08
20628;BME280;10473;42.734;24.258;2024-03-02T06:26:21;91668.59;;;6.89;70.94
20628;BME280;10473;42.734;24.258;2024-03-02T06:28:47;91657.53;;;6.82;71.70
20628;BME280;10473;42.734;24.258;2024-03-02T06:31:13;91666.00;;;6.76;72.04
20628;BME280;10473;42.734;24.258;2024-03-02T06:33:38;91680.47;;;6.77;73.11
20628;BME280;10473;42.734;24.258;2024-03-02T06:36:05;91672.34;;;6.87;71.78
20628;BME280;10473;42.734;24.258;2024-03-02T06:38:34;91676.63;;;6.53;74.52
20628;BME280;10473;42.734;24.258;2024-03-02T06:40:59;91672.31;;;6.73;73.20
20628;BME280;10473;42.734;24.258;2024-03-02T06:43:26;91683.66;;;6.92;73.24
20628;BME280;10473;42.734;24.258;2024-03-02T06:45:52;91688.41;;;6.95;73.47
20628;BME280;10473;42.734;24.258;2024-03-02T06:48:18;91680.09;;;7.00;72.71
20628;BME280;10473;42.734;24.258;2024-03-02T06:50:49;91682.28;;;6.90;73.52
20628;BME280;10473;42.734;24.258;2024-03-02T06:53:16;91680.47;;;6.77;72.88
20628;BME280;10473;42.734;24.258;2024-03-02T06:55:45;91683.28;;;6.41;76.90
20628;BME280;10473;42.734;24.258;2024-03-02T06:58:14;91689.69;;;6.65;74.82
20628;BME280;10473;42.734;24.258;2024-03-02T07:00:44;91696.63;;;6.64;75.06
20628;BME280;10473;42.734;24.258;2024-03-02T07:03:10;91685.38;;;6.72;75.72
20628;BME280;10473;42.734;24.258;2024-03-02T07:05:37;91689.88;;;6.63;75.77
20628;BME280;10473;42.734;24.258;2024-03-02T07:08:03;91693.06;;;6.65;76.51
20628;BME280;10473;42.734;24.258;2024-03-02T07:10:30;91694.44;;;6.68;76.75
20628;BME280;10473;42.734;24.258;2024-03-02T07:12:55;91688.66;;;6.52;76.09
20628;BME280;10473;42.734;24.258;2024-03-02T07:15:21;91685.78;;;6.75;75.20
20628;BME280;10473;42.734;24.258;2024-03-02T07:18:03;91693.47;;;6.69;76.38
20628;BME280;10473;42.734;24.258;2024-03-02T07:20:30;91693.72;;;6.87;75.11
20628;BME280;10473;42.734;24.258;2024-03-02T07:22:55;91688.38;;;6.82;75.29
20628;BME280;10473;42.734;24.258;2024-03-02T07:25:32;91697.28;;;6.86;75.26
20628;BME280;10473;42.734;24.258;2024-03-02T07:28:01;91690.94;;;6.82;76.31
20628;BME280;10473;42.734;24.258;2024-03-02T07:30:26;91693.31;;;6.77;75.16
20628;BME280;10473;42.734;24.258;2024-03-02T07:32:52;91695.47;;;6.80;75.61
20628;BME280;10473;42.734;24.258;2024-03-02T07:35:17;91693.47;;;6.69;75.88
20628;BME280;10473;42.734;24.258;2024-03-02T07:37:44;91695.66;;;6.78;75.91
20628;BME280;10473;42.734;24.258;2024-03-02T07:40:10;91682.81;;;6.85;74.83
20628;BME280;10473;42.734;24.258;2024-03-02T07:42:42;91698.09;;;7.00;75.02
20628;BME280;10473;42.734;24.258;2024-03-02T07:45:11;91699.69;;;7.01;74.90
20628;BME280;10473;42.734;24.258;2024-03-02T07:47:37;91702.09;;;7.09;74.63
20628;BME280;10473;42.734;24.258;2024-03-02T07:50:03;91702.72;;;7.31;75.00
20628;BME280;10473;42.734;24.258;2024-03-02T07:52:32;91705.47;;;7.16;75.28
20628;BME280;10473;42.734;24.258;2024-03-02T07:54:58;91706.41;;;7.02;75.66
20628;BME280;10473;42.734;24.258;2024-03-02T07:57:24;91709.25;;;7.27;74.43
20628;BME280;10473;42.734;24.258;2024-03-02T07:59:50;91690.63;;;7.12;73.50
20628;BME280;10473;42.734;24.258;2024-03-02T08:02:16;91700.13;;;7.18;73.76
20628;BME280;10473;42.734;24.258;2024-03-02T08:04:42;91700.13;;;7.11;74.19
20628;BME280;10473;42.734;24.258;2024-03-02T08:07:08;91696.16;;;7.22;72.37
20628;BME280;10473;42.734;24.258;2024-03-02T08:09:34;91684.28;;;7.14;72.57
20628;BME280;10473;42.734;24.258;2024-03-02T08:12:00;91693.38;;;7.10;74.47
20628;BME280;10473;42.734;24.258;2024-03-02T08:14:31;91694.22;;;7.31;72.19
20628;BME280;10473;42.734;24.258;2024-03-02T08:16:56;91700.34;;;7.56;72.21
20628;BME280;10473;42.734;24.258;2024-03-02T08:19:22;91690.41;;;7.13;71.90
20628;BME280;10473;42.734;24.258;2024-03-02T08:21:51;91705.91;;;7.40;73.49
20628;BME280;10473;42.734;24.258;2024-03-02T08:24:19;91704.44;;;7.11;73.38
20628;BME280;10473;42.734;24.258;2024-03-02T08:26:45;91690.22;;;7.08;73.88
20628;BME280;10473;42.734;24.258;2024-03-02T08:29:11;91708.97;;;6.95;74.91
20628;BME280;10473;42.734;24.258;2024-03-02T08:31:37;91709.59;;;7.17;72.86
20628;BME280;10473;42.734;24.258;2024-03-02T08:37:24;91712.16;;;6.97;72.20
20628;BME280;10473;42.734;24.258;2024-03-02T08:39:50;91708.75;;;6.77;72.89
20628;BME280;10473;42.734;24.258;2024-03-02T08:42:15;91721.00;;;6.82;74.43
20628;BME280;10473;42.734;24.258;2024-03-02T08:44:51;91700.81;;;6.78;72.79
20628;BME280;10473;42.734;24.258;2024-03-02T08:47:17;91719.41;;;6.81;72.30
20628;BME280;10473;42.734;24.258;2024-03-02T08:49:44;91710.75;;;6.88;72.10
20628;BME280;10473;42.734;24.258;2024-03-02T08:52:09;91704.59;;;6.89;72.43
20628;BME280;10473;42.734;24.258;2024-03-02T08:54:35;91713.31;;;6.95;71.89
20628;BME280;10473;42.734;24.258;2024-03-02T08:57:01;91712.56;;;7.01;71.98
20628;BME280;10473;42.734;24.258;2024-03-02T08:59:26;91710.00;;;7.14;73.85
20628;BME280;10473;42.734;24.258;2024-03-02T09:01:53;91705.81;;;7.07;74.18
20628;BME280;10473;42.734;24.258;2024-03-02T09:04:18;91709.41;;;7.12;73.77
20628;BME280;10473;42.734;24.258;2024-03-02T09:06:44;91705.03;;;7.06;74.21
20628;BME280;10473;42.734;24.258;2024-03-02T09:09:09;91710.19;;;7.19;73.32
20628;BME280;10473;42.734;24.258;2024-03-02T09:11:35;91706.81;;;6.99;72.70
20628;BME280;10473;42.734;24.258;2024-03-02T09:14:02;91713.59;;;7.20;69.72
20628;BME280;10473;42.734;24.258;2024-03-02T09:16:27;91725.88;;;7.31;70.06
20628;BME280;10473;42.734;24.258;2024-03-02T09:18:56;91729.03;;;7.27;70.36
20628;BME280;10473;42.734;24.258;2024-03-02T09:21:21;91734.97;;;7.27;71.16
20628;BME280;10473;42.734;24.258;2024-03-02T09:23:48;91731.19;;;7.23;72.39
20628;BME280;10473;42.734;24.258;2024-03-02T09:26:14;91736.16;;;7.18;71.85
20628;BME280;10473;42.734;24.258;2024-03-02T09:28:43;91733.34;;;7.13;72.34
20628;BME280;10473;42.734;24.258;2024-03-02T09:31:09;91731.00;;;7.11;71.93
20628;BME280;10473;42.734;24.258;2024-03-02T09:33:35;91736.91;;;7.05;74.09
20628;BME280;10473;42.734;24.258;2024-03-02T09:36:01;91743.25;;;7.09;72.40
20628;BME280;10473;42.734;24.258;2024-03-02T09:38:26;91752.53;;;7.04;71.30
20628;BME280;10473;42.734;24.258;2024-03-02T09:40:52;91749.91;;;6.90;73.07
20628;BME280;10473;42.734;24.258;2024-03-02T09:43:18;91754.09;;;7.05;74.31
20628;BME280;10473;42.734;24.258;2024-03-02T09:45:45;91758.09;;;7.07;74.22
20628;BME280;10473;42.734;24.258;2024-03-02T09:48:14;91741.03;;;6.99;71.63
20628;BME280;10473;42.734;24.258;2024-03-02T09:50:43;91740.88;;;7.14;72.24
20628;BME280;10473;42.734;24.258;2024-03-02T09:53:10;91749.38;;;7.15;74.78
20628;BME280;10473;42.734;24.258;2024-03-02T09:55:37;91752.22;;;7.40;72.98
20628;BME280;10473;42.734;24.258;2024-03-02T09:58:03;91741.47;;;7.16;73.52
20628;BME280;10473;42.734;24.258;2024-03-02T10:00:28;91739.69;;;7.10;74.47
20628;BME280;10473;42.734;24.258;2024-03-02T10:02:55;91741.66;;;7.22;73.75
20628;BME280;10473;42.734;24.258;2024-03-02T10:05:25;91742.47;;;7.22;73.47
20628;BME280;10473;42.734;24.258;2024-03-02T10:08:02;91741.84;;;7.07;74.75
20628;BME280;10473;42.734;24.258;2024-03-02T10:10:38;91731.31;;;6.95;76.05
20628;BME280;10473;42.734;24.258;2024-03-02T10:13:11;91740.09;;;7.20;74.22
20628;BME280;10473;42.734;24.258;2024-03-02T10:15:38;91731.19;;;7.10;73.26
20628;BME280;10473;42.734;24.258;2024-03-02T10:18:12;91719.50;;;7.14;72.40
20628;BME280;10473;42.734;24.258;2024-03-02T10:20:44;91733.41;;;7.46;71.66
20628;BME280;10473;42.734;24.258;2024-03-02T10:23:14;91730.63;;;7.61;74.37
20628;BME280;10473;42.734;24.258;2024-03-02T10:25:40;91720.34;;;7.48;74.62
20628;BME280;10473;42.734;24.258;2024-03-02T10:28:06;91726.66;;;7.45;75.98
20628;BME280;10473;42.734;24.258;2024-03-02T10:30:33;91727.25;;;7.40;75.36
20628;BME280;10473;42.734;24.258;2024-03-02T10:33:01;91732.03;;;7.64;73.61
20628;BME280;10473;42.734;24.258;2024-03-02T10:35:27;91726.69;;;7.78;72.56
20628;BME280;10473;42.734;24.258;2024-03-02T10:37:53;91723.13;;;7.73;73.48
20628;BME280;10473;42.734;24.258;2024-03-02T10:40:23;91724.69;;;7.74;73.34
20628;BME280;10473;42.734;24.258;2024-03-02T10:42:51;91719.94;;;7.84;73.80
20628;BME280;10473;42.734;24.258;2024-03-02T10:45:19;91719.13;;;8.03;74.24
20628;BME280;10473;42.734;24.258;2024-03-02T10:47:48;91712.81;;;7.93;73.61
20628;BME280;10473;42.734;24.258;2024-03-02T10:50:14;91721.50;;;8.18;74.60
20628;BME280;10473;42.734;24.258;2024-03-02T10:52:40;91713.19;;;8.03;73.96
20628;BME280;10473;42.734;24.258;2024-03-02T10:55:07;91711.03;;;7.87;74.42
20628;BME280;10473;42.734;24.258;2024-03-02T10:57:52;91714.63;;;7.72;77.10
20628;BME280;10473;42.734;24.258;2024-03-02T11:00:19;91706.28;;;7.50;78.45
20628;BME280;10473;42.734;24.258;2024-03-02T11:02:57;91707.69;;;7.66;79.16
20628;BME280;10473;42.734;24.258;2024-03-02T11:05:31;91699.56;;;7.63;80.29
20628;BME280;10473;42.734;24.258;2024-03-02T11:08:01;91695.00;;;7.51;76.03
20628;BME280;10473;42.734;24.258;2024-03-02T11:10:35;91689.25;;;7.69;74.59
20628;BME280;10473;42.734;24.258;2024-03-02T11:13:05;91682.69;;;8.13;72.43
20628;BME280;10473;42.734;24.258;2024-03-02T11:15:31;91685.63;;;8.17;73.87
20628;BME280;10473;42.734;24.258;2024-03-02T11:18:01;91683.81;;;8.17;72.15
20628;BME280;10473;42.734;24.258;2024-03-02T11:20:28;91674.97;;;7.80;74.76
20628;BME280;10473;42.734;24.258;2024-03-02T11:22:54;91682.25;;;8.16;74.21
20628;BME280;10473;42.734;24.258;2024-03-02T11:25:25;91663.22;;;8.17;71.93
20628;BME280;10473;42.734;24.258;2024-03-02T11:32:58;91648.47;;;8.51;72.20
20628;BME280;10473;42.734;24.258;2024-03-02T11:35:25;91656.34;;;8.70;71.94
20628;BME280;10473;42.734;24.258;2024-03-02T11:37:51;91659.63;;;8.83;72.65
20628;BME280;10473;42.734;24.258;2024-03-02T11:40:27;91648.22;;;8.66;68.53
20628;BME280;10473;42.734;24.258;2024-03-02T11:42:53;91637.19;;;8.52;63.79
20628;BME280;10473;42.734;24.258;2024-03-02T11:45:28;91646.59;;;8.72;67.30
20628;BME280;10473;42.734;24.258;2024-03-02T11:47:57;91595.59;;;8.80;66.56
20628;BME280;10473;42.734;24.258;2024-03-02T11:50:29;91642.28;;;8.97;69.46
20628;BME280;10473;42.734;24.258;2024-03-02T11:52:58;91630.56;;;8.70;70.85
20628;BME280;10473;42.734;24.258;2024-03-02T11:55:25;91622.44;;;8.66;69.63
20628;BME280;10473;42.734;24.258;2024-03-02T11:58:01;91632.03;;;8.52;70.97
20628;BME280;10473;42.734;24.258;2024-03-02T12:00:27;91629.84;;;8.49;69.86
20628;BME280;10473;42.734;24.258;2024-03-02T12:03:07;91622.94;;;8.43;71.44
20628;BME280;10473;42.734;24.258;2024-03-02T12:05:34;91625.50;;;8.43;69.29
20628;BME280;10473;42.734;24.258;2024-03-02T12:08:02;91617.94;;;8.55;68.42
20628;BME280;10473;42.734;24.258;2024-03-02T12:10:30;91630.88;;;8.80;67.35
20628;BME280;10473;42.734;24.258;2024-03-02T12:13:00;91626.13;;;8.77;66.46
20628;BME280;10473;42.734;24.258;2024-03-02T12:15:28;91627.06;;;8.89;65.85
20628;BME280;10473;42.734;24.258;2024-03-02T12:17:58;91629.44;;;8.52;67.56
20628;BME280;10473;42.734;24.258;2024-03-02T12:20:25;91636.09;;;8.67;66.84
20628;BME280;10473;42.734;24.258;2024-03-02T12:22:52;91635.63;;;8.38;67.47
20628;BME280;10473;42.734;24.258;2024-03-02T12:25:19;91634.50;;;8.72;68.00
20628;BME280;10473;42.734;24.258;2024-03-02T12:27:50;91640.03;;;8.76;64.80
20628;BME280;10473;42.734;24.258;2024-03-02T12:30:17;91630.06;;;8.86;64.00
20628;BME280;10473;42.734;24.258;2024-03-02T12:32:47;91632.53;;;8.68;67.53
20628;BME280;10473;42.734;24.258;2024-03-02T12:35:13;91629.75;;;8.69;66.64
20628;BME280;10473;42.734;24.258;2024-03-02T12:37:46;91620.50;;;8.55;68.31
20628;BME280;10473;42.734;24.258;2024-03-02T12:40:12;91628.31;;;8.21;71.86
20628;BME280;10473;42.734;24.258;2024-03-02T12:42:41;91627.34;;;8.22;71.42
20628;BME280;10473;42.734;24.258;2024-03-02T12:45:08;91622.63;;;8.06;73.66
20628;BME280;10473;42.734;24.258;2024-03-02T12:47:34;91640.47;;;8.08;73.40
20628;BME280;10473;42.734;24.258;2024-03-02T12:50:00;91633.41;;;7.70;75.78
20628;BME280;10473;42.734;24.258;2024-03-02T12:52:26;91647.66;;;7.79;76.77
20628;BME280;10473;42.734;24.258;2024-03-02T12:54:52;91654.16;;;8.01;76.45
20628;BME280;10473;42.734;24.258;2024-03-02T12:57:25;91654.16;;;7.95;74.55
20628;BME280;10473;42.734;24.258;2024-03-02T12:59:51;91667.69;;;7.64;76.35
20628;BME280;10473;42.734;24.258;2024-03-02T13:02:19;91664.91;;;7.58;77.44
20628;BME280;10473;42.734;24.258;2024-03-02T13:04:53;91659.38;;;7.68;77.01
20628;BME280;10473;42.734;24.258;2024-03-02T13:07:23;91671.63;;;7.66;77.02
20628;BME280;10473;42.734;24.258;2024-03-02T13:09:53;91669.47;;;7.50;78.15
20628;BME280;10473;42.734;24.258;2024-03-02T13:12:23;91668.25;;;7.46;77.04
20628;BME280;10473;42.734;24.258;2024-03-02T13:14:52;91672.44;;;7.20;79.55